createdAt,value
2019-02-06T00:00:00.466Z,1.60
2019-02-06T00:01:10.021Z,1.60
2019-02-06T00:02:16.206Z,1.60
2019-02-06T00:03:22.554Z,1.60
2019-02-06T00:04:27.465Z,1.60
2019-02-06T00:05:32.342Z,1.60
2019-02-06T00:06:37.293Z,1.60
2019-02-06T00:07:42.045Z,1.60
2019-02-06T00:08:47.037Z,1.70
2019-02-06T00:09:51.918Z,1.60
2019-02-06T00:10:57.017Z,1.60
2019-02-06T00:12:01.809Z,1.60
2019-02-06T00:13:06.820Z,1.60
2019-02-06T00:14:11.777Z,1.60
2019-02-06T00:15:16.657Z,1.60
2019-02-06T00:16:21.534Z,1.60
2019-02-06T00:17:26.432Z,1.60
2019-02-06T00:18:31.211Z,1.60
2019-02-06T00:19:36.087Z,1.70
2019-02-06T00:20:40.821Z,1.70
2019-02-06T00:21:45.605Z,1.70
2019-02-06T00:22:50.485Z,1.60
2019-02-06T00:23:55.333Z,1.60
2019-02-06T00:25:00.229Z,1.60
2019-02-06T00:26:05.518Z,1.70
2019-02-06T00:27:10.685Z,1.70
2019-02-06T00:28:15.961Z,1.70
2019-02-06T00:29:20.825Z,1.60
2019-02-06T00:30:26.139Z,1.70
2019-02-06T00:31:30.978Z,1.60
2019-02-06T00:32:35.742Z,1.60
2019-02-06T00:33:40.602Z,1.70
2019-02-06T00:34:45.503Z,1.70
2019-02-06T00:35:50.245Z,1.70
2019-02-06T00:36:55.173Z,1.70
2019-02-06T00:38:00.121Z,1.70
2019-02-06T00:39:08.678Z,1.70
2019-02-06T00:40:13.790Z,1.70
2019-02-06T00:41:18.621Z,1.70
2019-02-06T00:42:23.457Z,1.70
2019-02-06T00:43:28.296Z,1.80
2019-02-06T00:44:33.202Z,1.70
2019-02-06T00:45:37.973Z,1.70
2019-02-06T00:46:42.707Z,1.70
2019-02-06T00:47:47.570Z,1.80
2019-02-06T00:48:52.546Z,1.80
2019-02-06T00:49:57.388Z,1.80
2019-02-06T00:51:02.132Z,1.70
2019-02-06T00:52:06.902Z,1.70
2019-02-06T00:53:12.081Z,1.70
2019-02-06T00:54:16.840Z,1.70
2019-02-06T00:55:21.902Z,1.70
2019-02-06T00:56:26.647Z,1.70
2019-02-06T00:57:31.377Z,1.70
2019-02-06T00:58:36.348Z,1.70
2019-02-06T00:59:41.174Z,1.70
2019-02-06T01:00:46.050Z,1.70
2019-02-06T01:01:51.029Z,1.70
2019-02-06T01:02:55.959Z,1.80
2019-02-06T01:04:00.736Z,1.80
2019-02-06T01:05:06.412Z,1.80
2019-02-06T01:06:11.597Z,1.80
2019-02-06T01:07:16.981Z,1.80
2019-02-06T01:08:21.865Z,1.80
2019-02-06T01:09:26.723Z,1.80
2019-02-06T01:10:31.648Z,1.90
2019-02-06T01:11:36.498Z,1.90
2019-02-06T01:12:41.401Z,1.90
2019-02-06T01:13:46.421Z,1.90
2019-02-06T01:14:51.407Z,1.90
2019-02-06T01:15:56.301Z,1.90
2019-02-06T01:17:01.269Z,1.80
2019-02-06T01:18:06.378Z,1.80
2019-02-06T01:19:11.105Z,1.80
2019-02-06T01:20:16.798Z,1.80
2019-02-06T01:21:21.638Z,1.80
2019-02-06T01:22:26.552Z,1.80
2019-02-06T01:23:31.701Z,1.80
2019-02-06T01:24:36.873Z,1.70
2019-02-06T01:25:41.665Z,1.80
2019-02-06T01:26:46.442Z,1.70
2019-02-06T01:27:51.249Z,1.70
2019-02-06T01:28:56.041Z,1.70
2019-02-06T01:30:00.799Z,1.80
2019-02-06T01:31:11.681Z,1.90
2019-02-06T01:32:16.422Z,1.90
2019-02-06T01:33:21.294Z,1.80
2019-02-06T01:34:26.058Z,1.90
2019-02-06T01:35:30.892Z,1.90
2019-02-06T01:36:35.753Z,1.90
2019-02-06T01:37:40.586Z,1.90
2019-02-06T01:38:45.485Z,1.90
2019-02-06T01:39:50.212Z,1.80
2019-02-06T01:40:55.177Z,1.80
2019-02-06T01:41:59.921Z,1.70
2019-02-06T01:43:05.057Z,1.80
2019-02-06T01:44:09.943Z,1.80
2019-02-06T01:45:16.552Z,1.80
2019-02-06T01:46:21.473Z,1.70
2019-02-06T01:47:26.241Z,1.70
2019-02-06T01:48:31.172Z,1.70
2019-02-06T01:49:36.034Z,1.70
2019-02-06T01:50:40.824Z,1.70
2019-02-06T01:51:45.609Z,1.70
2019-02-06T01:52:50.365Z,1.60
2019-02-06T01:53:55.551Z,1.60
2019-02-06T01:55:00.318Z,1.60
2019-02-06T01:56:05.653Z,1.70
2019-02-06T01:57:10.633Z,1.60
2019-02-06T01:58:15.449Z,1.70
2019-02-06T01:59:20.221Z,1.60
2019-02-06T02:00:25.641Z,1.60
2019-02-06T02:01:30.939Z,1.60
2019-02-06T02:02:35.693Z,1.60
2019-02-06T02:03:40.454Z,1.60
2019-02-06T02:04:45.211Z,1.60
2019-02-06T02:06:01.331Z,1.60
2019-02-06T02:06:56.390Z,1.60
2019-02-06T02:08:01.130Z,1.60
2019-02-06T02:09:10.935Z,1.70
2019-02-06T02:10:15.950Z,1.60
2019-02-06T02:11:20.737Z,1.70
2019-02-06T02:12:25.779Z,1.70
2019-02-06T02:13:30.659Z,1.70
2019-02-06T02:14:35.438Z,1.70
2019-02-06T02:15:40.193Z,1.70
2019-02-06T02:16:45.098Z,1.70
2019-02-06T02:17:50.005Z,1.70
2019-02-06T02:18:54.901Z,1.70
2019-02-06T02:20:00.156Z,1.60
2019-02-06T02:21:05.587Z,1.70
2019-02-06T02:22:10.361Z,1.70
2019-02-06T02:23:15.281Z,1.70
2019-02-06T02:24:20.096Z,1.70
2019-02-06T02:25:24.857Z,1.70
2019-02-06T02:26:29.658Z,1.70
2019-02-06T02:27:34.393Z,1.60
2019-02-06T02:28:39.189Z,1.60
2019-02-06T02:29:43.970Z,1.60
2019-02-06T02:30:51.822Z,1.60
2019-02-06T02:31:56.643Z,1.60
2019-02-06T02:33:01.394Z,1.60
2019-02-06T02:34:06.202Z,1.60
2019-02-06T02:35:11.213Z,1.60
2019-02-06T02:36:16.642Z,1.60
2019-02-06T02:37:21.547Z,1.60
2019-02-06T02:38:26.305Z,1.50
2019-02-06T02:39:31.373Z,1.50
2019-02-06T02:40:36.414Z,1.40
2019-02-06T02:41:41.273Z,1.40
2019-02-06T02:42:46.145Z,1.40
2019-02-06T02:43:50.926Z,1.30
2019-02-06T02:44:55.743Z,1.30
2019-02-06T02:46:00.532Z,1.30
2019-02-06T02:47:05.324Z,1.30
2019-02-06T02:48:10.283Z,1.30
2019-02-06T02:49:15.060Z,1.30
2019-02-06T02:50:19.851Z,1.30
2019-02-06T02:51:24.721Z,1.30
2019-02-06T02:52:29.537Z,1.30
2019-02-06T02:53:34.314Z,1.30
2019-02-06T02:54:39.227Z,1.30
2019-02-06T02:55:43.974Z,1.30
2019-02-06T02:56:48.780Z,1.30
2019-02-06T02:57:53.933Z,1.30
2019-02-06T02:58:59.236Z,1.40
2019-02-06T03:00:05.518Z,1.40
2019-02-06T03:01:41.707Z,1.40
2019-02-06T03:02:53.311Z,1.40
2019-02-06T03:04:17.057Z,1.50
2019-02-06T03:05:25.331Z,1.40
2019-02-06T03:06:30.069Z,1.50
2019-02-06T03:07:34.973Z,1.50
2019-02-06T03:08:39.865Z,1.50
2019-02-06T03:09:44.746Z,1.50
2019-02-06T03:10:49.617Z,1.50
2019-02-06T03:11:54.357Z,1.50
2019-02-06T03:12:59.142Z,1.50
2019-02-06T03:14:04.103Z,1.50
2019-02-06T03:15:09.913Z,1.50
2019-02-06T03:16:15.216Z,1.50
2019-02-06T03:17:20.183Z,1.50
2019-02-06T03:18:25.100Z,1.50
2019-02-06T03:19:29.861Z,1.50
2019-02-06T03:20:34.749Z,1.50
2019-02-06T03:21:39.509Z,1.50
2019-02-06T03:22:44.419Z,1.50
2019-02-06T03:23:49.214Z,1.50
2019-02-06T03:24:57.122Z,1.50
2019-02-06T03:26:01.949Z,1.50
2019-02-06T03:27:06.693Z,1.50
2019-02-06T03:28:11.630Z,1.50
2019-02-06T03:29:16.374Z,1.50
2019-02-06T03:30:21.311Z,1.50
2019-02-06T03:31:26.084Z,1.50
2019-02-06T03:32:30.881Z,1.50
2019-02-06T03:33:35.782Z,1.50
2019-02-06T03:34:41.005Z,1.50
2019-02-06T03:35:46.039Z,1.50
2019-02-06T03:36:50.930Z,1.50
2019-02-06T03:37:55.732Z,1.50
2019-02-06T03:39:00.477Z,1.50
2019-02-06T03:40:06.367Z,1.60
2019-02-06T03:41:11.142Z,1.60
2019-02-06T03:42:15.921Z,1.60
2019-02-06T03:43:20.776Z,1.60
2019-02-06T03:44:26.557Z,1.60
2019-02-06T03:45:31.396Z,1.60
2019-02-06T03:46:36.155Z,1.60
2019-02-06T03:47:41.013Z,1.60
2019-02-06T03:48:45.948Z,1.60
2019-02-06T03:49:50.810Z,1.60
2019-02-06T03:50:55.554Z,1.70
2019-02-06T03:52:00.462Z,1.70
2019-02-06T03:53:05.797Z,1.70
2019-02-06T03:54:10.562Z,1.70
2019-02-06T03:55:15.513Z,1.70
2019-02-06T03:56:20.370Z,1.70
2019-02-06T03:57:25.118Z,1.70
2019-02-06T03:58:30.009Z,1.70
2019-02-06T03:59:34.937Z,1.80
2019-02-06T04:00:39.771Z,1.80
2019-02-06T04:01:44.509Z,1.80
2019-02-06T04:02:49.637Z,1.80
2019-02-06T04:03:54.409Z,1.80
2019-02-06T04:04:59.184Z,1.80
2019-02-06T04:06:04.243Z,1.80
2019-02-06T04:07:09.148Z,1.80
2019-02-06T04:08:13.966Z,1.80
2019-02-06T04:09:18.719Z,1.80
2019-02-06T04:10:23.956Z,1.80
2019-02-06T04:11:28.770Z,1.80
2019-02-06T04:12:33.554Z,1.80
2019-02-06T04:13:38.429Z,1.80
2019-02-06T04:14:43.212Z,1.80
2019-02-06T04:15:48.075Z,1.80
2019-02-06T04:16:54.016Z,1.90
2019-02-06T04:17:58.801Z,1.90
2019-02-06T04:19:03.773Z,1.90
2019-02-06T04:20:09.971Z,1.90
2019-02-06T04:21:14.754Z,1.90
2019-02-06T04:22:19.616Z,1.90
2019-02-06T04:23:24.348Z,1.90
2019-02-06T04:24:29.155Z,1.90
2019-02-06T04:25:34.019Z,1.90
2019-02-06T04:26:38.812Z,2.00
2019-02-06T04:27:43.807Z,1.90
2019-02-06T04:28:48.968Z,2.00
2019-02-06T04:29:54.860Z,1.90
2019-02-06T04:30:59.629Z,1.90
2019-02-06T04:32:04.532Z,1.90
2019-02-06T04:33:09.573Z,1.90
2019-02-06T04:34:14.439Z,1.90
2019-02-06T04:35:19.536Z,1.90
2019-02-06T04:36:24.348Z,1.90
2019-02-06T04:37:29.101Z,1.90
2019-02-06T04:38:34.104Z,1.90
2019-02-06T04:39:39.103Z,1.90
2019-02-06T04:40:44.055Z,1.90
2019-02-06T04:41:49.013Z,2.00
2019-02-06T04:42:53.754Z,2.00
2019-02-06T04:43:58.537Z,2.00
2019-02-06T04:45:04.545Z,2.00
2019-02-06T04:46:09.280Z,2.00
2019-02-06T04:47:14.306Z,2.00
2019-02-06T04:48:19.730Z,1.90
2019-02-06T04:49:24.633Z,2.00
2019-02-06T04:50:29.547Z,2.00
2019-02-06T04:51:34.346Z,1.90
2019-02-06T04:52:39.087Z,2.00
2019-02-06T04:53:43.989Z,1.90
2019-02-06T04:54:48.802Z,1.90
2019-02-06T04:55:53.724Z,1.90
2019-02-06T04:56:58.633Z,2.00
2019-02-06T04:58:03.633Z,2.00
2019-02-06T04:59:08.794Z,2.00
2019-02-06T05:00:17.768Z,2.00
2019-02-06T05:01:23.200Z,2.00
2019-02-06T05:02:28.181Z,2.00
2019-02-06T05:03:33.587Z,2.00
2019-02-06T05:04:38.694Z,1.90
2019-02-06T05:05:43.593Z,2.00
2019-02-06T05:06:48.709Z,1.90
2019-02-06T05:07:54.041Z,1.90
2019-02-06T05:08:59.153Z,1.90
2019-02-06T05:10:05.008Z,1.90
2019-02-06T05:11:09.895Z,1.90
2019-02-06T05:12:14.662Z,1.90
2019-02-06T05:13:19.473Z,2.00
2019-02-06T05:14:24.328Z,2.00
2019-02-06T05:15:29.362Z,2.00
2019-02-06T05:16:34.365Z,2.00
2019-02-06T05:17:39.135Z,2.00
2019-02-06T05:18:43.897Z,1.90
2019-02-06T05:19:48.793Z,2.00
2019-02-06T05:20:53.523Z,2.00
2019-02-06T05:21:58.294Z,2.00
2019-02-06T05:23:03.125Z,1.90
2019-02-06T05:24:07.918Z,1.90
2019-02-06T05:25:13.059Z,1.90
2019-02-06T05:26:18.561Z,1.90
2019-02-06T05:27:23.567Z,1.90
2019-02-06T05:28:28.884Z,1.90
2019-02-06T05:29:34.042Z,2.00
2019-02-06T05:30:38.991Z,2.00
2019-02-06T05:31:44.007Z,2.00
2019-02-06T05:32:48.858Z,2.00
2019-02-06T05:33:53.725Z,2.00
2019-02-06T05:34:58.597Z,1.90
2019-02-06T05:36:03.484Z,1.90
2019-02-06T05:37:08.478Z,1.90
2019-02-06T05:38:13.471Z,1.90
2019-02-06T05:39:18.330Z,1.80
2019-02-06T05:40:23.342Z,1.80
2019-02-06T05:41:28.388Z,1.70
2019-02-06T05:42:33.378Z,1.80
2019-02-06T05:43:38.502Z,1.70
2019-02-06T05:44:43.361Z,1.70
2019-02-06T05:45:49.551Z,1.60
2019-02-06T05:46:54.434Z,1.60
2019-02-06T05:47:59.302Z,1.60
2019-02-06T05:49:04.253Z,1.60
2019-02-06T05:50:10.716Z,1.60
2019-02-06T05:51:15.654Z,1.60
2019-02-06T05:52:20.578Z,1.60
2019-02-06T05:53:25.602Z,1.60
2019-02-06T05:54:30.561Z,1.60
2019-02-06T05:55:35.426Z,1.60
2019-02-06T05:56:40.267Z,1.60
2019-02-06T05:57:45.330Z,1.60
2019-02-06T05:58:50.217Z,1.60
2019-02-06T05:59:55.143Z,1.60
2019-02-06T06:01:00.523Z,1.60
2019-02-06T06:02:06.018Z,1.60
2019-02-06T06:03:11.006Z,1.60
2019-02-06T06:04:16.037Z,1.60
2019-02-06T06:05:21.097Z,1.60
2019-02-06T06:06:26.087Z,1.60
2019-02-06T06:07:44.154Z,1.60
2019-02-06T06:08:38.093Z,1.60
2019-02-06T06:09:43.391Z,1.50
2019-02-06T06:10:48.342Z,1.60
2019-02-06T06:11:53.181Z,1.60
2019-02-06T06:12:58.132Z,1.60
2019-02-06T06:14:03.036Z,1.60
2019-02-06T06:15:08.590Z,1.60
2019-02-06T06:16:13.481Z,1.60
2019-02-06T06:17:18.656Z,1.60
2019-02-06T06:18:24.037Z,1.70
2019-02-06T06:19:29.385Z,1.70
2019-02-06T06:20:35.098Z,1.70
2019-02-06T06:21:40.005Z,1.70
2019-02-06T06:22:44.921Z,1.70
2019-02-06T06:23:49.966Z,1.70
2019-02-06T06:24:55.086Z,1.60
2019-02-06T06:26:00.272Z,1.60
2019-02-06T06:27:06.178Z,1.60
2019-02-06T06:28:12.264Z,1.60
2019-02-06T06:29:17.303Z,1.60
2019-02-06T06:30:22.420Z,1.60
2019-02-06T06:31:27.362Z,1.70
2019-02-06T06:32:32.416Z,1.60
2019-02-06T06:33:37.446Z,1.60
2019-02-06T06:34:42.373Z,1.60
2019-02-06T06:35:47.286Z,1.60
2019-02-06T06:36:52.290Z,1.60
2019-02-06T06:38:01.518Z,1.60
2019-02-06T06:39:05.593Z,1.60
2019-02-06T06:40:13.979Z,1.60
2019-02-06T06:41:19.207Z,1.60
2019-02-06T06:42:24.394Z,1.50
2019-02-06T06:43:29.229Z,1.50
2019-02-06T06:44:34.274Z,1.40
2019-02-06T06:45:39.184Z,1.40
2019-02-06T06:46:44.190Z,1.40
2019-02-06T06:47:49.939Z,1.40
2019-02-06T06:48:54.995Z,1.40
2019-02-06T06:50:00.352Z,1.40
2019-02-06T06:51:05.677Z,1.30
2019-02-06T06:52:11.003Z,1.40
2019-02-06T06:53:15.893Z,1.40
2019-02-06T06:54:21.047Z,1.40
2019-02-06T06:55:26.104Z,1.30
2019-02-06T06:56:31.215Z,1.30
2019-02-06T06:57:36.251Z,1.30
2019-02-06T06:58:41.408Z,1.30
2019-02-06T06:59:46.739Z,1.30
2019-02-06T07:00:52.065Z,1.30
2019-02-06T07:01:57.109Z,1.30
2019-02-06T07:03:02.218Z,1.30
2019-02-06T07:04:07.442Z,1.30
2019-02-06T07:05:12.454Z,1.30
2019-02-06T07:06:17.656Z,1.30
2019-02-06T07:07:22.683Z,1.30
2019-02-06T07:08:27.521Z,1.30
2019-02-06T07:09:32.283Z,1.30
2019-02-06T07:10:37.281Z,1.30
2019-02-06T07:11:42.934Z,1.40
2019-02-06T07:12:48.677Z,1.40
2019-02-06T07:13:53.726Z,1.40
2019-02-06T07:14:58.921Z,1.40
2019-02-06T07:16:04.111Z,1.50
2019-02-06T07:17:09.271Z,1.60
2019-02-06T07:18:14.873Z,1.60
2019-02-06T07:19:20.038Z,1.60
2019-02-06T07:20:26.055Z,1.60
2019-02-06T07:21:31.097Z,1.60
2019-02-06T07:22:36.077Z,1.70
2019-02-06T07:23:41.130Z,1.60
2019-02-06T07:24:46.646Z,1.60
2019-02-06T07:25:52.286Z,1.70
2019-02-06T07:26:57.345Z,1.60
2019-02-06T07:28:02.984Z,1.60
2019-02-06T07:29:08.575Z,1.60
2019-02-06T07:30:17.636Z,1.50
2019-02-06T07:31:22.398Z,1.50
2019-02-06T07:32:27.806Z,1.50
2019-02-06T07:33:33.271Z,1.60
2019-02-06T07:34:38.299Z,1.60
2019-02-06T07:35:43.154Z,1.60
2019-02-06T07:36:48.197Z,1.60
2019-02-06T07:37:53.502Z,1.60
2019-02-06T07:38:58.420Z,1.60
2019-02-06T07:40:03.571Z,1.70
2019-02-06T07:41:09.215Z,1.70
2019-02-06T07:42:14.202Z,1.80
2019-02-06T07:43:20.022Z,1.80
2019-02-06T07:44:25.480Z,1.80
2019-02-06T07:45:30.556Z,1.70
2019-02-06T07:46:36.570Z,1.80
2019-02-06T07:47:41.645Z,1.70
2019-02-06T07:48:46.919Z,1.80
2019-02-06T07:49:52.057Z,1.90
2019-02-06T07:50:57.151Z,1.90
2019-02-06T07:52:02.307Z,1.90
2019-02-06T07:53:08.003Z,2.00
2019-02-06T07:54:13.173Z,2.00
2019-02-06T07:55:18.614Z,2.00
2019-02-06T07:56:23.833Z,2.00
2019-02-06T07:57:28.959Z,2.00
2019-02-06T07:58:33.919Z,2.00
2019-02-06T07:59:39.183Z,1.90
2019-02-06T08:00:44.583Z,1.90
2019-02-06T08:01:49.499Z,1.80
2019-02-06T08:02:55.332Z,1.90
2019-02-06T08:04:00.434Z,1.90
2019-02-06T08:05:06.144Z,2.00
2019-02-06T08:06:11.243Z,2.10
2019-02-06T08:07:16.790Z,2.10
2019-02-06T08:08:21.924Z,2.10
2019-02-06T08:09:27.089Z,2.10
2019-02-06T08:10:34.230Z,2.20
2019-02-06T08:11:39.391Z,2.20
2019-02-06T08:12:44.611Z,2.30
2019-02-06T08:13:49.706Z,2.30
2019-02-06T08:14:54.761Z,2.40
2019-02-06T08:15:59.759Z,2.50
2019-02-06T08:17:05.397Z,2.50
2019-02-06T08:18:11.698Z,2.60
2019-02-06T08:19:16.881Z,2.60
2019-02-06T08:20:22.962Z,2.60
2019-02-06T08:21:28.436Z,2.60
2019-02-06T08:22:33.439Z,2.60
2019-02-06T08:23:39.152Z,2.60
2019-02-06T08:24:44.229Z,2.60
2019-02-06T08:25:49.807Z,2.60
2019-02-06T08:26:55.131Z,2.50
2019-02-06T08:28:00.144Z,2.50
2019-02-06T08:29:06.492Z,2.40
2019-02-06T08:30:26.576Z,2.40
2019-02-06T08:31:31.621Z,2.30
2019-02-06T08:32:38.022Z,2.30
2019-02-06T08:33:43.793Z,2.30
2019-02-06T08:34:48.930Z,2.20
2019-02-06T08:35:54.483Z,2.20
2019-02-06T08:36:59.477Z,2.10
2019-02-06T08:38:05.182Z,2.10
2019-02-06T08:39:10.945Z,2.00
2019-02-06T08:40:17.047Z,1.90
2019-02-06T08:41:22.174Z,1.90
2019-02-06T08:42:27.273Z,1.90
2019-02-06T08:43:32.490Z,1.90
2019-02-06T08:44:37.699Z,1.90
2019-02-06T08:45:43.254Z,1.90
2019-02-06T08:46:49.855Z,2.00
2019-02-06T08:47:57.319Z,2.00
2019-02-06T08:49:04.035Z,2.10
2019-02-06T08:50:10.745Z,2.10
2019-02-06T08:51:15.916Z,2.10
2019-02-06T08:52:22.043Z,2.20
2019-02-06T08:53:27.669Z,2.20
2019-02-06T08:54:32.529Z,2.10
2019-02-06T08:55:37.342Z,2.10
2019-02-06T08:56:43.044Z,2.20
2019-02-06T08:57:48.948Z,2.10
2019-02-06T08:58:54.083Z,2.10
2019-02-06T08:59:59.049Z,2.00
2019-02-06T09:01:05.438Z,2.00
2019-02-06T09:02:12.298Z,2.00
2019-02-06T09:03:17.661Z,2.00
2019-02-06T09:04:22.636Z,1.90
2019-02-06T09:05:27.917Z,1.90
2019-02-06T09:06:33.278Z,1.90
2019-02-06T09:07:38.626Z,1.90
2019-02-06T09:08:44.132Z,1.90
2019-02-06T09:09:49.663Z,1.90
2019-02-06T09:10:54.716Z,1.90
2019-02-06T09:11:59.843Z,2.00
2019-02-06T09:13:05.679Z,2.00
2019-02-06T09:14:10.789Z,2.00
2019-02-06T09:15:16.239Z,2.00
2019-02-06T09:16:21.394Z,2.10
2019-02-06T09:17:26.549Z,2.20
2019-02-06T09:18:31.594Z,2.20
2019-02-06T09:19:36.634Z,2.30
2019-02-06T09:20:41.914Z,2.30
2019-02-06T09:21:46.954Z,2.30
2019-02-06T09:22:52.064Z,2.30
2019-02-06T09:23:57.355Z,2.40
2019-02-06T09:25:02.482Z,2.40
2019-02-06T09:26:07.750Z,2.40
2019-02-06T09:27:12.881Z,2.30
2019-02-06T09:28:18.163Z,2.20
2019-02-06T09:29:23.450Z,2.30
2019-02-06T09:30:30.090Z,2.20
2019-02-06T09:31:35.230Z,2.30
2019-02-06T09:32:40.245Z,2.20
2019-02-06T09:33:45.192Z,2.20
2019-02-06T09:34:50.306Z,2.20
2019-02-06T09:35:55.427Z,2.30
2019-02-06T09:37:00.460Z,2.30
2019-02-06T09:38:05.447Z,2.40
2019-02-06T09:39:12.156Z,2.40
2019-02-06T09:40:19.171Z,2.50
2019-02-06T09:41:24.095Z,2.50
2019-02-06T09:42:29.167Z,2.60
2019-02-06T09:43:34.285Z,2.60
2019-02-06T09:44:39.204Z,2.70
2019-02-06T09:45:44.280Z,2.80
2019-02-06T09:46:49.199Z,2.80
2019-02-06T09:47:54.405Z,2.80
2019-02-06T09:48:59.688Z,2.80
2019-02-06T09:50:05.931Z,2.80
2019-02-06T09:51:10.950Z,2.70
2019-02-06T09:52:15.842Z,2.70
2019-02-06T09:53:20.912Z,2.80
2019-02-06T09:54:25.853Z,2.70
2019-02-06T09:55:31.153Z,2.70
2019-02-06T09:56:39.241Z,2.70
2019-02-06T09:57:44.169Z,2.70
2019-02-06T09:58:50.380Z,2.70
2019-02-06T09:59:55.599Z,2.70
2019-02-06T10:01:00.556Z,2.60
2019-02-06T10:02:05.735Z,2.60
2019-02-06T10:03:10.839Z,2.60
2019-02-06T10:04:15.914Z,2.60
2019-02-06T10:05:20.890Z,2.60
2019-02-06T10:06:26.340Z,2.40
2019-02-06T10:07:31.464Z,2.40
2019-02-06T10:08:38.450Z,2.40
2019-02-06T10:09:43.820Z,2.50
2019-02-06T10:10:49.299Z,2.50
2019-02-06T10:11:54.647Z,2.50
2019-02-06T10:13:00.176Z,2.60
2019-02-06T10:14:05.323Z,2.50
2019-02-06T10:15:11.361Z,2.60
2019-02-06T10:16:16.584Z,2.50
2019-02-06T10:17:21.394Z,2.60
2019-02-06T10:18:26.625Z,2.60
2019-02-06T10:19:31.554Z,2.50
2019-02-06T10:20:45.587Z,2.50
2019-02-06T10:21:53.540Z,2.60
2019-02-06T10:22:57.751Z,2.60
2019-02-06T10:24:02.750Z,2.70
2019-02-06T10:25:07.901Z,2.80
2019-02-06T10:26:12.918Z,2.90
2019-02-06T10:27:17.797Z,2.90
2019-02-06T10:28:24.214Z,3.00
2019-02-06T10:29:29.681Z,3.00
2019-02-06T10:30:37.246Z,3.10
2019-02-06T10:31:42.012Z,3.10
2019-02-06T10:32:47.017Z,3.10
2019-02-06T10:33:53.516Z,3.20
2019-02-06T10:34:58.459Z,3.30
2019-02-06T10:36:03.471Z,3.30
2019-02-06T10:37:08.631Z,3.20
2019-02-06T10:38:13.793Z,3.20
2019-02-06T10:39:18.686Z,3.30
2019-02-06T10:40:23.874Z,3.30
2019-02-06T10:41:28.906Z,3.40
2019-02-06T10:42:33.773Z,3.40
2019-02-06T10:43:38.654Z,3.50
2019-02-06T10:44:43.626Z,3.50
2019-02-06T10:45:48.761Z,3.40
2019-02-06T10:46:53.894Z,3.40
2019-02-06T10:47:59.865Z,3.40
2019-02-06T10:49:05.430Z,3.40
2019-02-06T10:50:12.174Z,3.30
2019-02-06T10:51:17.294Z,3.10
2019-02-06T10:52:22.133Z,3.10
2019-02-06T10:53:27.338Z,3.00
2019-02-06T10:54:32.454Z,3.00
2019-02-06T10:55:37.516Z,3.00
2019-02-06T10:56:42.329Z,2.90
2019-02-06T10:57:47.462Z,3.00
2019-02-06T10:58:52.365Z,2.90
2019-02-06T10:59:57.410Z,2.90
2019-02-06T11:01:03.284Z,2.90
2019-02-06T11:02:08.160Z,2.90
2019-02-06T11:03:13.275Z,2.90
2019-02-06T11:04:18.241Z,2.90
2019-02-06T11:05:23.399Z,2.90
2019-02-06T11:06:28.509Z,2.90
2019-02-06T11:07:33.493Z,3.00
2019-02-06T11:08:38.283Z,3.10
2019-02-06T11:09:46.591Z,3.10
2019-02-06T11:10:49.671Z,3.00
2019-02-06T11:11:55.068Z,3.10
2019-02-06T11:13:00.669Z,3.10
2019-02-06T11:14:05.554Z,3.00
2019-02-06T11:15:11.277Z,3.10
2019-02-06T11:16:16.347Z,3.10
2019-02-06T11:17:21.255Z,3.20
2019-02-06T11:18:26.378Z,3.10
2019-02-06T11:19:31.262Z,3.20
2019-02-06T11:20:39.396Z,3.20
2019-02-06T11:21:44.475Z,3.20
2019-02-06T11:22:49.570Z,3.30
2019-02-06T11:23:55.128Z,3.30
2019-02-06T11:25:00.347Z,3.30
2019-02-06T11:26:05.883Z,3.30
2019-02-06T11:27:11.010Z,3.20
2019-02-06T11:28:16.081Z,3.20
2019-02-06T11:29:21.585Z,3.20
2019-02-06T11:30:41.610Z,3.20
2019-02-06T11:31:57.093Z,3.30
2019-02-06T11:33:06.795Z,3.20
2019-02-06T11:34:11.732Z,3.20
2019-02-06T11:35:17.406Z,3.20
2019-02-06T11:36:24.294Z,3.20
2019-02-06T11:37:29.366Z,3.10
2019-02-06T11:38:40.254Z,3.10
2019-02-06T11:39:45.485Z,3.10
2019-02-06T11:41:09.832Z,3.10
2019-02-06T11:42:14.699Z,3.10
2019-02-06T11:43:19.543Z,3.10
2019-02-06T11:44:24.326Z,3.10
2019-02-06T11:45:31.251Z,3.00
2019-02-06T11:46:36.025Z,3.10
2019-02-06T11:47:40.913Z,3.10
2019-02-06T11:48:45.814Z,3.10
2019-02-06T11:49:54.276Z,3.10
2019-02-06T11:50:59.803Z,3.10
2019-02-06T11:52:05.313Z,3.10
2019-02-06T11:53:20.250Z,3.10
2019-02-06T11:54:25.470Z,3.10
2019-02-06T11:55:30.395Z,3.10
2019-02-06T11:56:35.223Z,3.00
2019-02-06T11:57:40.130Z,3.00
2019-02-06T11:58:45.028Z,3.00
2019-02-06T11:59:49.868Z,3.00
2019-02-06T12:01:22.821Z,3.00
2019-02-06T12:02:37.065Z,3.00
2019-02-06T12:03:47.054Z,3.10
2019-02-06T12:04:52.256Z,3.10
2019-02-06T12:05:57.305Z,3.10
2019-02-06T12:07:02.609Z,3.10
2019-02-06T12:08:07.766Z,3.20
2019-02-06T12:09:14.247Z,3.40
2019-02-06T12:10:19.627Z,3.50
2019-02-06T12:11:24.559Z,3.70
2019-02-06T12:12:37.995Z,3.80
2019-02-06T12:13:43.156Z,4.00
2019-02-06T12:14:49.472Z,4.20
2019-02-06T12:15:56.272Z,4.50
2019-02-06T12:17:08.708Z,4.80
2019-02-06T12:18:17.440Z,5.00
2019-02-06T12:19:26.724Z,5.00
2019-02-06T12:20:31.789Z,5.10
2019-02-06T12:21:40.089Z,5.10
2019-02-06T12:22:45.186Z,5.10
2019-02-06T12:23:49.960Z,5.20
2019-02-06T12:24:54.720Z,5.20
2019-02-06T12:25:59.460Z,5.10
2019-02-06T12:27:05.059Z,5.10
2019-02-06T12:28:10.124Z,5.10
2019-02-06T12:29:14.929Z,4.90
2019-02-06T12:30:25.781Z,4.90
2019-02-06T12:31:31.800Z,5.00
2019-02-06T12:32:37.210Z,4.90
2019-02-06T12:33:42.559Z,4.80
2019-02-06T12:34:48.301Z,4.80
2019-02-06T12:35:55.492Z,4.70
2019-02-06T12:37:00.526Z,4.60
2019-02-06T12:38:06.104Z,4.50
2019-02-06T12:39:14.286Z,4.60
2019-02-06T12:40:21.925Z,4.60
2019-02-06T12:41:27.316Z,4.50
2019-02-06T12:42:32.530Z,4.50
2019-02-06T12:43:38.207Z,4.40
2019-02-06T12:44:50.730Z,4.50
2019-02-06T12:45:57.096Z,4.60
2019-02-06T12:47:02.183Z,4.50
2019-02-06T12:48:09.025Z,4.50
2019-02-06T12:49:16.074Z,4.50
2019-02-06T12:50:21.293Z,4.40
2019-02-06T12:51:26.320Z,4.40
2019-02-06T12:52:31.324Z,4.50
2019-02-06T12:53:36.325Z,4.50
2019-02-06T12:54:41.335Z,4.50
2019-02-06T12:55:46.535Z,4.40
2019-02-06T12:56:51.861Z,4.30
2019-02-06T12:57:56.907Z,4.30
2019-02-06T12:59:01.778Z,4.40
2019-02-06T13:00:10.765Z,4.50
2019-02-06T13:01:15.646Z,4.50
2019-02-06T13:02:20.605Z,4.40
2019-02-06T13:03:25.510Z,4.30
2019-02-06T13:04:30.657Z,4.20
2019-02-06T13:05:35.685Z,4.20
2019-02-06T13:06:40.692Z,4.30
2019-02-06T13:07:45.545Z,4.20
2019-02-06T13:08:50.530Z,4.20
2019-02-06T13:09:55.612Z,4.20
2019-02-06T13:11:01.098Z,4.20
2019-02-06T13:12:10.024Z,4.30
2019-02-06T13:13:15.322Z,4.30
2019-02-06T13:14:25.517Z,4.40
2019-02-06T13:15:30.074Z,4.30
2019-02-06T13:16:38.039Z,4.40
2019-02-06T13:17:43.423Z,4.40
2019-02-06T13:18:48.874Z,4.40
2019-02-06T13:19:54.172Z,4.40
2019-02-06T13:20:59.359Z,4.40
2019-02-06T13:22:06.433Z,4.50
2019-02-06T13:23:12.959Z,4.50
2019-02-06T13:24:18.207Z,4.50
2019-02-06T13:25:23.769Z,4.40
2019-02-06T13:26:29.479Z,4.30
2019-02-06T13:27:34.735Z,4.20
2019-02-06T13:28:39.873Z,4.20
2019-02-06T13:29:45.168Z,4.20
2019-02-06T13:30:52.867Z,4.20
2019-02-06T13:32:03.976Z,4.10
2019-02-06T13:33:11.738Z,4.10
2019-02-06T13:34:16.885Z,4.00
2019-02-06T13:35:22.194Z,3.80
2019-02-06T13:36:27.645Z,3.80
2019-02-06T13:37:32.842Z,3.80
2019-02-06T13:38:40.277Z,3.80
2019-02-06T13:39:48.347Z,3.70
2019-02-06T13:40:53.719Z,3.70
2019-02-06T13:41:58.834Z,3.70
2019-02-06T13:43:04.354Z,3.70
2019-02-06T13:44:09.727Z,3.80
2019-02-06T13:45:19.107Z,3.80
2019-02-06T13:46:24.638Z,3.80
2019-02-06T13:47:32.032Z,3.80
2019-02-06T13:48:37.878Z,3.80
2019-02-06T13:49:43.247Z,3.90
2019-02-06T13:50:48.365Z,3.80
2019-02-06T13:51:57.449Z,3.80
2019-02-06T13:53:02.765Z,3.80
2019-02-06T13:54:08.365Z,3.80
2019-02-06T13:55:14.562Z,3.80
2019-02-06T13:56:20.043Z,3.90
2019-02-06T13:57:33.428Z,3.90
2019-02-06T13:58:34.996Z,3.80
2019-02-06T13:59:40.440Z,3.90
2019-02-06T14:00:45.957Z,3.80
2019-02-06T14:01:53.873Z,3.70
2019-02-06T14:02:59.160Z,3.70
2019-02-06T14:04:06.728Z,3.70
2019-02-06T14:05:13.565Z,3.70
2019-02-06T14:06:18.807Z,3.80
2019-02-06T14:07:24.049Z,3.80
2019-02-06T14:08:29.270Z,3.80
2019-02-06T14:09:37.166Z,3.90
2019-02-06T14:11:00.584Z,4.00
2019-02-06T14:12:02.442Z,4.00
2019-02-06T14:13:08.141Z,4.00
2019-02-06T14:14:13.337Z,4.00
2019-02-06T14:15:20.995Z,4.10
2019-02-06T14:16:58.782Z,4.10
2019-02-06T14:18:25.722Z,4.10
2019-02-06T14:19:32.715Z,4.10
2019-02-06T14:20:49.328Z,4.00
2019-02-06T14:21:54.446Z,3.90
2019-02-06T14:23:28.768Z,3.90
2019-02-06T14:25:10.530Z,3.80
2019-02-06T14:26:59.330Z,3.80
2019-02-06T14:28:44.828Z,3.70
2019-02-06T14:30:31.747Z,3.60
2019-02-06T14:32:32.916Z,3.50
2019-02-06T14:34:17.539Z,3.40
2019-02-06T14:35:57.718Z,3.30
2019-02-06T14:37:22.253Z,3.30
2019-02-06T14:39:08.584Z,3.20
2019-02-06T14:40:54.009Z,3.20